ADDS METAR Data INFO
IDs: Format: Raw Decoded Include TAF

Data at: 1750 UTC 21 Oct 2017

PASC 211745Z 23008KT 2SM BR OVC003 M16/M17 A2956 RMK AO2 T11561167
PASC 211653Z 23008KT 4SM BR OVC004 M16/M16 A2955 RMK AO2 SLP008 T11561161
PASC 211641Z 23008KT 4SM BR OVC004 M16/M16 A2955 RMK AO2 T11561161
PASC 211617Z 23009KT 1 1/2SM BR OVC003 M16/M16 A2954 RMK AO2 VIS 1V2 T11561161
PASC 211602Z 23009KT 2SM BR OVC003 M16/M16 A2954 RMK AO2 VIS 1V3 T11561161
PASC 211553Z 23009KT 4SM BR OVC003 M16/M17 A2954 RMK AO2 SLP006 T11561167
PASC 211453Z 24010KT 10SM OVC005 M16/M17 A2953 RMK AO2 SLP002 T11611167 51006
PASC 211353Z 23009KT 10SM OVC005 M16/M17 A2953 RMK AO2 SLP001 T11611172
PASC 211315Z 22008KT 10SM BKN007 OVC110 M17/M18 A2952 RMK AO2 T11671178
PASC 211253Z 23010KT 10SM FEW007 OVC110 M17/M18 A2952 RMK AO2 SLP998 T11671178
PASC 211232Z 22010KT 10SM SCT004 OVC110 M17/M18 A2952 RMK AO2 T11721178
PASC 211153Z 22011KT 4SM BR OVC003 M17/M17 A2951 RMK AO2 SLP996 I6001 T11671172 11144 21167 51011
PASC 211117Z 21009KT 1 1/2SM BR OVC004 M16/M17 A2952 RMK AO2 T11611167
PASC 211053Z 22011KT 2 1/2SM BR OVC004 M16/M17 A2951 RMK AO2 SLP994 T11561167
PASC 211022Z 22010KT 5SM BR OVC004 M16/M16 A2950 RMK AO2 T11561161
PASC 210953Z 22010KT 4SM BR OVC006 M16/M16 A2949 RMK AO2 SLP989 T11561161
PASC 210853Z 21012KT 10SM OVC009 M15/M16 A2948 RMK AO2 SLP985 I1001 I3001 T11501161 411441183 51009
PASC 210851Z 21012KT 10SM OVC009 M15/M16 A2948 RMK AO2 I1001
PASC 210753Z 21012KT 10SM OVC010 M15/M16 A2947 RMK AO2 SLP980 T11501161
PASC 210718Z 21012KT 10SM OVC011 M15/M16 A2946 RMK AO2 T11501161
PASC 210653Z 21012KT 10SM BKN008 OVC012 M15/M17 A2945 RMK AO2 CIG 006V010 SLP975 T11501167
PASC 210626Z 22012KT 10SM OVC010 M15/M17 A2945 RMK AO2 CIG 006V013 T11501167
PASC 210553Z 22014KT 10SM OVC008 M15/M17 A2944 RMK AO2 SLP971 T11501172 11144 21156 51012
PASC 210453Z 21011KT 10SM OVC007 M14/M17 A2943 RMK AO2 SLP968 T11441172
PASC 210353Z 22013KT 10SM OVC009 M14/M18 A2942 RMK AO2 SLP964 T11441178
PASC 210253Z 22015KT 10SM OVC006 M15/M18 A2941 RMK AO2 SLP959 T11501183 53008
PASC 210153Z 21013KT 10SM OVC006 M14/M17 A2939 RMK AO2 SLP955 T11441172
PASC 210053Z 21016KT 10SM OVC006 M14/M18 A2939 RMK AO2 SLP954 T11441178
PASC 210000Z 22017KT 10SM OVC008 M16/M18 A2938 RMK AO2 T11561183
PASC 202353Z 22018KT 10SM BKN010 BKN050 M16/M19 A2938 RMK AO2 SLP951 60000 T11561189 11150 21167 53003
PASC 202339Z 22017KT 10SM BKN010 BKN050 M16/M19 A2938 RMK AO2 T11611194
PASC 202334Z 23016KT 10SM SCT009 BKN050 M16/M19 A2938 RMK AO2 T11611194
PASC 202253Z 22015KT 10SM FEW021 M17/M19 A2938 RMK AO2 SLP949 T11671194
PASC 202226Z 22015KT 10SM SCT021 M16/M19 A2937 RMK AO2 T11611189
PASC 202153Z 23017KT 10SM OVC023 M16/M18 A2937 RMK AO2 SLP947 DRSN T11561183
PASC 202053Z 22017KT 5SM BLSN OVC027 M16/M18 A2937 RMK AO2 SNE50 SLP948 OCNL BINOVC OHD P0000 60000 T11561183 53003
PASC 201953Z 22019KT 3SM -SN BR BKN026 OVC034 M16/M18 A2937 RMK AO2 SLP947 P0000 T11561178
PASC 201853Z 22014KT 4SM -SN BR BKN024 BKN030 OVC035 M15/M17 A2936 RMK AO2 SLP945 P0000 T11501167
PASC 201753Z 22015KT 6SM -SN BR BKN019 OVC031 M15/M17 A2936 RMK AO2 SNE25B43 SLP945 P0000 60000 T11501172 11150 21161 55001
PASC 201653Z 22015KT 3SM -SN BR FEW023 OVC032 M16/M17 A2936 RMK AO2 SLP944 P0000 T11561172
PASC 201626Z 23014KT 2SM -SN BR BKN027 OVC034 M16/M17 A2936 RMK AO2 VIS 1V3 P0000 T11561172
PASC 201553Z 23016KT 3SM -SN BR OVC029 M16/M18 A2936 RMK AO2 SLP945 P0000 T11561178
PASC 201453Z 23015KT 3SM -SN BR OVC029 M16/M18 A2937 RMK AO2 SLP946 P0000 60000 T11611183 56009
PASC 201356Z 23014KT 3SM -SN BR OVC029 M16/M18 A2937 RMK AO2 P0000 T11561178
PASC 201353Z 23013KT 2 1/2SM -SN BR OVC031 M16/M18 A2937 RMK AO2 SLP947 P0000 T11561178
PASC 201342Z 23014KT 2SM -SN BR OVC031 M16/M18 A2937 RMK AO2 P0000 T11611178
PASC 201253Z 23013KT 3SM -SN BR OVC035 M16/M18 A2938 RMK AO2 SLP950 P0000 T11561178
PASC 201206Z 23010KT 2 1/2SM -SN BR OVC026 M16/M18 A2939 RMK AO2 P0000 T11561178
PASC 201153Z 24010KT 2SM -SN BR OVC032 M16/M18 A2939 RMK AO2 SNB17 SLP955 P0000 60000 T11561178 11150 21211 58006
PASC 201053Z 23011KT 8SM OVC050 M16/M18 A2940 RMK AO2 SNE40 SLP957 P0000 T11561183
PASC 200953Z 23012KT 8SM -SN BKN055 OVC080 M17/M20 A2941 RMK AO2 SNB49 SLP960 P0000 T11721200
PASC 200853Z 24009KT 10SM OVC039 M19/M21 A2941 RMK AO2 SLP961 T11891211 410941211 56006
PASC 200753Z 24009KT 10SM SCT031 M20/M23 A2941 RMK AO2 SLP962 AURBO T12001228
PASC 200653Z 24010KT 10SM SCT031 M21/M23 A2942 RMK AO2 SLP964 T12111233
PASC 200553Z 24009KT 10SM SCT031 M21/M23 A2943 RMK AO2 SLP967 T12061228 11172 21211 58005